createdAt,value
2022-08-07T00:00:40.081Z,55.50
2022-08-07T00:03:08.786Z,55.50
2022-08-07T00:05:37.148Z,55.40
2022-08-07T00:08:07.813Z,55.50
2022-08-07T00:10:48.280Z,55.50
2022-08-07T00:13:26.729Z,55.50
2022-08-07T00:15:55.474Z,55.70
2022-08-07T00:18:25.582Z,55.90
2022-08-07T00:20:54.960Z,55.90
2022-08-07T00:23:25.238Z,55.90
2022-08-07T00:26:00.162Z,56.10
2022-08-07T00:28:34.063Z,56.10
2022-08-07T00:31:05.825Z,56.30
2022-08-07T00:33:35.505Z,56.80
2022-08-07T00:36:04.610Z,57.00
2022-08-07T00:38:33.296Z,57.30
2022-08-07T00:41:03.539Z,57.40
2022-08-07T00:44:01.959Z,57.40
2022-08-07T00:46:19.980Z,57.40
2022-08-07T00:48:51.661Z,57.20
2022-08-07T00:51:19.735Z,57.00
2022-08-07T00:53:50.205Z,56.90
2022-08-07T00:56:20.339Z,56.80
2022-08-07T00:58:49.936Z,56.70
2022-08-07T01:01:20.130Z,56.60
2022-08-07T01:03:56.903Z,56.60
2022-08-07T01:06:28.532Z,56.60
2022-08-07T01:08:58.659Z,56.60
2022-08-07T01:12:09.270Z,56.50
2022-08-07T01:14:21.439Z,56.40
2022-08-07T01:16:57.106Z,56.50
2022-08-07T01:19:27.668Z,56.50
2022-08-07T01:22:03.518Z,56.50
2022-08-07T01:24:37.082Z,56.70
2022-08-07T01:27:05.729Z,56.80
2022-08-07T01:29:47.897Z,56.80
2022-08-07T01:32:18.742Z,56.90
2022-08-07T01:34:47.457Z,56.90
2022-08-07T01:37:19.355Z,57.30
2022-08-07T01:39:48.721Z,58.00
2022-08-07T01:42:39.262Z,57.90
2022-08-07T01:45:09.811Z,58.50
2022-08-07T01:48:19.876Z,58.00
2022-08-07T01:50:33.198Z,57.90
2022-08-07T01:53:08.812Z,57.80
2022-08-07T01:55:42.301Z,57.70
2022-08-07T01:58:29.451Z,57.60
2022-08-07T02:01:09.810Z,57.70
2022-08-07T02:03:58.910Z,57.90
2022-08-07T02:06:31.906Z,57.90
2022-08-07T02:09:05.597Z,58.20
2022-08-07T02:12:03.922Z,58.20
2022-08-07T02:14:40.187Z,58.20
2022-08-07T02:17:11.216Z,58.20
2022-08-07T02:20:07.508Z,58.30
2022-08-07T02:22:32.244Z,58.20
2022-08-07T02:25:07.447Z,58.30
2022-08-07T02:27:43.961Z,58.30
2022-08-07T02:30:19.561Z,58.10
2022-08-07T02:33:03.851Z,58.00
2022-08-07T02:36:29.539Z,58.10
2022-08-07T02:38:31.877Z,58.20
2022-08-07T02:41:04.064Z,58.10
2022-08-07T02:43:33.733Z,58.10
2022-08-07T02:46:05.226Z,58.10
2022-08-07T02:48:34.412Z,58.20
2022-08-07T02:51:14.294Z,58.20
2022-08-07T02:54:00.553Z,58.30
2022-08-07T02:56:32.436Z,58.30
2022-08-07T02:59:04.946Z,58.30
2022-08-07T03:01:36.051Z,58.20
2022-08-07T03:04:07.774Z,58.20
2022-08-07T03:06:41.359Z,58.40
2022-08-07T03:09:11.360Z,58.50
2022-08-07T03:11:51.620Z,58.80
2022-08-07T03:14:27.698Z,59.00
2022-08-07T03:16:57.144Z,59.10
2022-08-07T03:19:29.035Z,59.20
2022-08-07T03:22:06.769Z,58.90
2022-08-07T03:24:36.733Z,59.00
2022-08-07T03:27:09.045Z,59.20
2022-08-07T03:29:49.335Z,59.10
2022-08-07T03:32:23.254Z,59.10
2022-08-07T03:35:00.926Z,59.20
2022-08-07T03:37:46.219Z,59.50
2022-08-07T03:40:22.288Z,59.50
2022-08-07T03:42:52.800Z,59.50
2022-08-07T03:45:30.190Z,59.50
2022-08-07T03:47:59.976Z,59.60
2022-08-07T03:50:29.232Z,59.70
2022-08-07T03:52:59.452Z,59.70
2022-08-07T03:55:46.164Z,60.00
2022-08-07T03:59:05.150Z,60.00
2022-08-07T04:01:13.905Z,60.00
2022-08-07T04:03:53.675Z,60.10
2022-08-07T04:06:36.371Z,60.20
2022-08-07T04:09:08.529Z,60.30
2022-08-07T04:12:20.676Z,60.40
2022-08-07T04:14:38.817Z,60.40
2022-08-07T04:17:20.538Z,60.40
2022-08-07T04:20:01.244Z,60.60
2022-08-07T04:22:30.093Z,60.80
2022-08-07T04:25:01.223Z,60.80
2022-08-07T04:27:35.668Z,61.10
2022-08-07T04:30:21.660Z,60.90
2022-08-07T04:32:58.881Z,61.10
2022-08-07T04:35:27.406Z,60.90
2022-08-07T04:38:07.631Z,61.40
2022-08-07T04:40:36.409Z,61.30
2022-08-07T04:44:09.689Z,61.80
2022-08-07T04:46:26.003Z,61.50
2022-08-07T04:49:17.989Z,61.60
2022-08-07T04:51:59.086Z,61.80
2022-08-07T04:54:33.815Z,61.90
2022-08-07T04:58:16.377Z,62.10
2022-08-07T05:00:12.559Z,62.10
2022-08-07T05:02:53.806Z,61.80
2022-08-07T05:05:52.858Z,62.00
2022-08-07T05:08:59.986Z,62.00
2022-08-07T05:11:19.126Z,62.00
2022-08-07T05:14:53.337Z,62.20
2022-08-07T05:16:52.952Z,62.40
2022-08-07T05:19:25.769Z,62.30
2022-08-07T05:22:04.752Z,62.20
2022-08-07T05:24:39.443Z,62.40
2022-08-07T05:28:01.803Z,62.10
2022-08-07T05:30:01.117Z,62.50
2022-08-07T05:32:29.978Z,62.40
2022-08-07T05:34:59.806Z,62.40
2022-08-07T05:37:31.866Z,62.60
2022-08-07T05:40:19.230Z,62.80
2022-08-07T05:42:56.006Z,62.80
2022-08-07T05:45:46.084Z,62.70
2022-08-07T05:48:13.811Z,62.60
2022-08-07T05:50:43.824Z,62.50
2022-08-07T05:54:13.620Z,62.80
2022-08-07T05:56:03.085Z,63.20
2022-08-07T05:58:36.714Z,62.90
2022-08-07T06:01:10.640Z,62.90
2022-08-07T06:03:53.560Z,62.70
2022-08-07T06:06:29.858Z,63.10
2022-08-07T06:09:04.792Z,63.30
2022-08-07T06:11:34.087Z,63.40
2022-08-07T06:14:12.820Z,63.30
2022-08-07T06:16:55.794Z,63.30
2022-08-07T06:19:52.007Z,63.40
2022-08-07T06:22:23.764Z,63.50
2022-08-07T06:25:01.567Z,63.50
2022-08-07T06:27:44.045Z,63.70
2022-08-07T06:30:32.300Z,63.70
2022-08-07T06:33:05.377Z,63.90
2022-08-07T06:35:45.774Z,63.70
2022-08-07T06:38:30.303Z,63.80
2022-08-07T06:41:00.881Z,64.00
2022-08-07T06:43:39.217Z,64.00
2022-08-07T06:46:12.274Z,64.40
2022-08-07T06:48:42.034Z,64.50
2022-08-07T06:51:31.123Z,64.80
2022-08-07T06:55:32.014Z,64.70
2022-08-07T06:56:52.697Z,64.70
2022-08-07T07:00:11.364Z,64.70
2022-08-07T07:02:49.189Z,64.80
2022-08-07T07:05:07.404Z,65.00
2022-08-07T07:07:59.755Z,65.30
2022-08-07T07:10:31.437Z,65.40
2022-08-07T07:13:04.835Z,66.00
2022-08-07T07:15:37.897Z,66.10
2022-08-07T07:18:15.177Z,65.90
2022-08-07T07:21:13.523Z,66.50
2022-08-07T07:24:10.219Z,67.30
2022-08-07T07:26:40.607Z,67.30
2022-08-07T07:29:57.506Z,67.00
2022-08-07T07:32:04.292Z,67.20
2022-08-07T07:34:33.890Z,67.00
2022-08-07T07:37:05.377Z,67.40
2022-08-07T07:39:54.356Z,67.70
2022-08-07T07:42:32.978Z,67.20
2022-08-07T07:45:02.766Z,68.00
2022-08-07T07:47:52.158Z,67.90
2022-08-07T07:50:35.771Z,67.80
2022-08-07T07:53:20.476Z,68.40
2022-08-07T07:55:57.746Z,68.50
2022-08-07T07:58:40.292Z,68.10
2022-08-07T08:02:01.609Z,67.90
2022-08-07T08:04:10.961Z,68.40
2022-08-07T08:06:40.689Z,68.60
2022-08-07T08:09:22.731Z,68.80
2022-08-07T08:12:02.102Z,69.50
2022-08-07T08:14:34.514Z,68.50
2022-08-07T08:17:55.272Z,69.40
2022-08-07T08:20:22.415Z,68.40
2022-08-07T08:23:09.415Z,68.40
2022-08-07T08:25:58.240Z,68.60
2022-08-07T08:28:37.889Z,68.60
2022-08-07T08:31:15.977Z,68.40
2022-08-07T08:33:49.262Z,68.80
2022-08-07T08:36:25.658Z,68.60
2022-08-07T08:39:02.055Z,67.90
2022-08-07T08:41:57.109Z,68.30
2022-08-07T08:44:41.191Z,68.20
2022-08-07T08:47:25.179Z,67.50
2022-08-07T08:50:05.478Z,67.20
2022-08-07T08:52:40.921Z,67.00
2022-08-07T08:55:54.394Z,66.50
2022-08-07T08:58:28.353Z,66.90
2022-08-07T09:01:15.148Z,66.10
2022-08-07T09:03:55.468Z,66.30
2022-08-07T09:06:36.626Z,66.10
2022-08-07T09:09:20.752Z,66.40
2022-08-07T09:12:19.848Z,65.60
2022-08-07T09:16:22.376Z,65.70
2022-08-07T09:18:04.238Z,65.10
2022-08-07T09:20:58.362Z,63.80
2022-08-07T09:24:30.644Z,64.40
2022-08-07T09:26:40.451Z,63.60
2022-08-07T09:30:06.308Z,62.10
2022-08-07T09:32:23.728Z,62.10
2022-08-07T09:36:01.158Z,62.30
2022-08-07T09:38:10.533Z,61.40
2022-08-07T09:40:48.187Z,61.00
2022-08-07T09:44:03.537Z,60.30
2022-08-07T09:47:54.960Z,59.00
2022-08-07T09:50:00.406Z,57.80
2022-08-07T09:52:33.824Z,58.30
2022-08-07T09:55:17.247Z,58.20
2022-08-07T09:58:34.675Z,58.00
2022-08-07T10:01:14.884Z,57.70
2022-08-07T10:04:27.936Z,57.00
2022-08-07T10:07:39.798Z,56.00
2022-08-07T10:10:24.415Z,54.90
2022-08-07T10:13:55.250Z,54.80
2022-08-07T10:16:30.242Z,54.20
2022-08-07T10:19:19.451Z,53.60
2022-08-07T10:22:16.101Z,53.70
2022-08-07T10:24:57.431Z,53.50
2022-08-07T10:27:53.396Z,53.50
2022-08-07T10:30:34.732Z,52.70
2022-08-07T10:34:05.669Z,52.60
2022-08-07T10:36:39.694Z,52.90
2022-08-07T10:39:25.943Z,52.80
2022-08-07T10:42:31.263Z,51.60
2022-08-07T10:45:16.265Z,52.00
2022-08-07T10:48:03.645Z,51.90
2022-08-07T10:50:36.248Z,51.30
2022-08-07T10:53:10.942Z,51.20
2022-08-07T10:55:53.430Z,51.20
2022-08-07T10:58:40.470Z,51.10
2022-08-07T11:01:51.928Z,50.90
2022-08-07T11:04:41.762Z,50.20
2022-08-07T11:07:56.998Z,50.30
2022-08-07T11:10:19.931Z,50.10
2022-08-07T11:13:02.287Z,49.30
2022-08-07T11:15:36.862Z,49.70
2022-08-07T11:18:15.706Z,48.90
2022-08-07T11:20:49.399Z,48.70
2022-08-07T11:23:30.234Z,48.80
2022-08-07T11:26:06.716Z,49.70
2022-08-07T11:28:39.894Z,49.50
2022-08-07T11:31:21.084Z,48.90
2022-08-07T11:34:00.347Z,48.80
2022-08-07T11:36:44.697Z,48.40
2022-08-07T11:39:39.808Z,47.50
2022-08-07T11:42:19.274Z,47.80
2022-08-07T11:44:57.647Z,48.00
2022-08-07T11:48:17.965Z,46.80
2022-08-07T11:51:40.641Z,46.30
2022-08-07T11:54:22.159Z,46.10
2022-08-07T11:56:58.193Z,47.10
2022-08-07T12:00:11.749Z,46.40
2022-08-07T12:03:01.847Z,46.10
2022-08-07T12:05:49.275Z,46.70
2022-08-07T12:08:25.852Z,46.50
2022-08-07T12:11:20.245Z,45.80
2022-08-07T12:13:57.690Z,45.90
2022-08-07T12:16:30.387Z,45.60
2022-08-07T12:19:07.574Z,45.00
2022-08-07T12:21:55.726Z,45.50
2022-08-07T12:24:40.492Z,44.70
2022-08-07T12:27:16.341Z,44.50
2022-08-07T12:29:54.073Z,45.80
2022-08-07T12:32:30.885Z,45.70
2022-08-07T12:35:01.115Z,45.10
2022-08-07T12:38:09.467Z,45.60
2022-08-07T12:40:47.560Z,45.90
2022-08-07T12:44:02.038Z,44.50
2022-08-07T12:46:07.229Z,44.40
2022-08-07T12:48:53.169Z,44.00
2022-08-07T12:51:33.170Z,43.50
2022-08-07T12:54:38.190Z,43.10
2022-08-07T12:57:10.595Z,43.90
2022-08-07T12:59:54.343Z,43.90
2022-08-07T13:02:42.500Z,44.10
2022-08-07T13:06:03.159Z,43.70
2022-08-07T13:08:44.628Z,44.10
2022-08-07T13:11:31.199Z,44.00
2022-08-07T13:14:30.978Z,43.60
2022-08-07T13:17:06.019Z,43.50
2022-08-07T13:19:50.571Z,43.60
2022-08-07T13:22:31.050Z,43.60
2022-08-07T13:25:03.992Z,43.80
2022-08-07T13:28:13.808Z,43.50
2022-08-07T13:30:40.229Z,43.10
2022-08-07T13:34:31.189Z,42.90
2022-08-07T13:36:17.505Z,42.60
2022-08-07T13:38:54.561Z,42.20
2022-08-07T13:41:33.155Z,41.90
2022-08-07T13:44:05.125Z,42.10
2022-08-07T13:46:49.579Z,41.70
2022-08-07T13:50:35.356Z,41.80
2022-08-07T13:52:22.467Z,42.00
2022-08-07T13:54:59.536Z,41.80
2022-08-07T13:57:32.208Z,41.10
2022-08-07T14:00:26.110Z,41.50
2022-08-07T14:02:59.433Z,41.20
2022-08-07T14:05:37.991Z,40.80
2022-08-07T14:08:09.024Z,40.70
2022-08-07T14:10:41.939Z,40.40
2022-08-07T14:13:16.162Z,40.50
2022-08-07T14:15:50.519Z,40.20
2022-08-07T14:18:29.251Z,40.70
2022-08-07T14:21:08.290Z,40.50
2022-08-07T14:24:03.705Z,40.10
2022-08-07T14:26:37.526Z,40.40
2022-08-07T14:30:07.186Z,39.80
2022-08-07T14:32:02.045Z,39.50
2022-08-07T14:34:34.319Z,39.70
2022-08-07T14:37:16.666Z,39.40
2022-08-07T14:40:17.895Z,39.40
2022-08-07T14:43:55.225Z,39.20
2022-08-07T14:45:46.327Z,38.70
2022-08-07T14:48:19.891Z,39.60
2022-08-07T14:56:33.676Z,39.40
2022-08-07T14:59:13.359Z,38.40
2022-08-07T15:01:50.927Z,38.60
2022-08-07T15:04:22.600Z,38.70
2022-08-07T15:06:54.978Z,38.80
2022-08-07T15:12:25.965Z,38.90
2022-08-07T15:15:07.671Z,38.10
2022-08-07T15:20:55.070Z,38.00
2022-08-07T15:25:14.054Z,38.10
2022-08-07T15:26:20.813Z,37.40
2022-08-07T15:28:58.385Z,38.60
2022-08-07T15:34:18.231Z,39.10
2022-08-07T15:39:57.109Z,38.60
2022-08-07T15:42:51.710Z,38.70
2022-08-07T15:45:55.093Z,38.80
2022-08-07T15:48:25.662Z,39.20
2022-08-07T15:51:01.648Z,39.00
2022-08-07T15:53:51.851Z,39.00
2022-08-07T15:56:33.374Z,38.90
2022-08-07T15:59:05.536Z,38.60
2022-08-07T16:01:38.752Z,38.30
2022-08-07T16:04:14.508Z,38.90
2022-08-07T16:06:49.302Z,39.00
2022-08-07T16:09:23.987Z,38.50
2022-08-07T16:12:29.119Z,38.60
2022-08-07T16:15:55.482Z,38.30
2022-08-07T16:18:14.337Z,38.70
2022-08-07T16:21:56.766Z,38.60
2022-08-07T16:24:02.123Z,38.50
2022-08-07T16:26:59.477Z,38.40
2022-08-07T16:30:11.333Z,38.10
2022-08-07T16:32:46.232Z,38.60
2022-08-07T16:35:51.639Z,38.60
2022-08-07T16:39:00.614Z,38.80
2022-08-07T16:41:54.087Z,38.30
2022-08-07T16:45:14.409Z,38.70
2022-08-07T16:48:06.621Z,38.80
2022-08-07T16:51:22.572Z,39.20
2022-08-07T16:54:09.062Z,38.80
2022-08-07T16:56:53.228Z,39.00
2022-08-07T16:59:46.699Z,38.60
2022-08-07T17:02:52.943Z,38.80
2022-08-07T17:06:19.788Z,39.20
2022-08-07T17:09:04.236Z,39.50
2022-08-07T17:12:01.560Z,39.90
2022-08-07T17:14:26.079Z,39.50
2022-08-07T17:16:58.510Z,39.80
2022-08-07T17:20:00.922Z,40.10
2022-08-07T17:22:37.452Z,39.90
2022-08-07T17:25:14.127Z,40.30
2022-08-07T17:27:55.967Z,40.50
2022-08-07T17:30:27.686Z,40.50
2022-08-07T17:34:09.217Z,40.30
2022-08-07T17:36:20.395Z,40.50
2022-08-07T17:38:55.676Z,40.50
2022-08-07T17:42:04.580Z,40.10
2022-08-07T17:44:33.980Z,40.10
2022-08-07T17:47:38.686Z,40.40
2022-08-07T17:50:14.440Z,40.20
2022-08-07T17:52:55.273Z,40.50
2022-08-07T17:56:00.877Z,41.00
2022-08-07T17:58:31.195Z,41.20
2022-08-07T18:01:18.073Z,40.90
2022-08-07T18:04:07.076Z,41.30
2022-08-07T18:06:42.864Z,41.00
2022-08-07T18:10:04.308Z,41.10
2022-08-07T18:12:27.973Z,41.20
2022-08-07T18:15:08.656Z,41.60
2022-08-07T18:18:44.853Z,41.60
2022-08-07T18:21:10.963Z,41.90
2022-08-07T18:23:50.627Z,41.80
2022-08-07T18:26:48.505Z,41.80
2022-08-07T18:30:08.388Z,41.80
2022-08-07T18:32:22.651Z,42.00
2022-08-07T18:35:15.951Z,42.20
2022-08-07T18:38:59.589Z,42.10
2022-08-07T18:41:09.312Z,42.30
2022-08-07T18:44:04.035Z,42.10
2022-08-07T18:46:47.905Z,42.20
2022-08-07T18:50:30.133Z,42.20
2022-08-07T18:52:52.982Z,42.30
2022-08-07T18:55:41.214Z,42.20
2022-08-07T18:58:51.007Z,42.30
2022-08-07T19:02:17.089Z,42.40
2022-08-07T19:04:54.779Z,42.40
2022-08-07T19:07:34.863Z,42.40
2022-08-07T19:10:14.898Z,42.50
2022-08-07T19:12:59.380Z,42.60
2022-08-07T19:16:02.805Z,42.70
2022-08-07T19:18:48.952Z,42.80
2022-08-07T19:21:44.176Z,43.10
2022-08-07T19:24:29.972Z,43.50
2022-08-07T19:28:57.982Z,43.70
2022-08-07T19:31:00.064Z,43.80
2022-08-07T19:32:46.474Z,44.10
2022-08-07T19:35:22.307Z,44.40
2022-08-07T19:37:58.246Z,44.60
2022-08-07T19:40:30.994Z,44.90
2022-08-07T19:42:59.917Z,45.10
2022-08-07T19:46:07.307Z,45.50
2022-08-07T19:48:19.046Z,45.70
2022-08-07T19:50:54.646Z,45.70
2022-08-07T19:54:33.747Z,45.80
2022-08-07T19:57:51.765Z,45.90
2022-08-07T19:59:08.577Z,46.00
2022-08-07T20:01:56.097Z,45.90
2022-08-07T20:04:31.416Z,46.60
2022-08-07T20:07:02.486Z,46.30
2022-08-07T20:10:33.966Z,46.40
2022-08-07T20:12:34.436Z,46.60
2022-08-07T20:15:15.602Z,47.00
2022-08-07T20:18:01.409Z,46.80
2022-08-07T20:20:33.647Z,47.10
2022-08-07T20:23:23.411Z,47.30
2022-08-07T20:25:55.029Z,47.60
2022-08-07T20:28:29.950Z,47.50
2022-08-07T20:30:59.650Z,47.70
2022-08-07T20:33:37.482Z,47.40
2022-08-07T20:36:09.703Z,47.30
2022-08-07T20:38:53.637Z,48.40
2022-08-07T20:41:38.300Z,48.70
2022-08-07T20:44:10.374Z,49.20
2022-08-07T20:46:44.737Z,48.80
2022-08-07T20:49:59.988Z,48.80
2022-08-07T20:52:14.055Z,48.90
2022-08-07T20:54:53.729Z,48.90
2022-08-07T20:57:25.515Z,49.00
2022-08-07T21:00:07.274Z,49.40
2022-08-07T21:02:57.779Z,49.40
2022-08-07T21:05:51.199Z,49.70
2022-08-07T21:08:37.746Z,50.50
2022-08-07T21:11:14.336Z,50.10
2022-08-07T21:14:16.835Z,50.50
2022-08-07T21:16:56.221Z,50.70
2022-08-07T21:19:32.440Z,50.70
2022-08-07T21:22:19.780Z,50.60
2022-08-07T21:25:11.686Z,50.60
2022-08-07T21:27:53.805Z,51.00
2022-08-07T21:30:30.110Z,51.30
2022-08-07T21:33:07.946Z,51.40
2022-08-07T21:36:05.493Z,51.40
2022-08-07T21:38:38.529Z,51.50
2022-08-07T21:41:20.590Z,51.40
2022-08-07T21:43:57.903Z,51.10
2022-08-07T21:46:36.907Z,51.10
2022-08-07T21:49:14.787Z,51.00
2022-08-07T21:51:55.690Z,51.30
2022-08-07T21:54:31.577Z,51.50
2022-08-07T21:57:16.131Z,51.70
2022-08-07T22:00:09.238Z,51.90
2022-08-07T22:03:05.798Z,52.00
2022-08-07T22:05:44.682Z,52.40
2022-08-07T22:08:18.589Z,52.50
2022-08-07T22:10:50.664Z,52.70
2022-08-07T22:13:24.407Z,52.80
2022-08-07T22:16:43.355Z,53.00
2022-08-07T22:19:08.150Z,53.20
2022-08-07T22:22:04.365Z,53.20
2022-08-07T22:24:34.575Z,53.40
2022-08-07T22:27:10.204Z,53.50
2022-08-07T22:29:48.487Z,53.80
2022-08-07T22:32:27.290Z,53.90
2022-08-07T22:34:58.376Z,54.00
2022-08-07T22:38:03.887Z,54.20
2022-08-07T22:40:29.348Z,54.40
2022-08-07T22:43:03.951Z,54.60
2022-08-07T22:46:43.056Z,54.90
2022-08-07T22:49:02.378Z,54.90
2022-08-07T22:51:51.870Z,55.10
2022-08-07T22:54:40.368Z,55.20
2022-08-07T22:57:40.907Z,55.20
2022-08-07T23:00:16.012Z,55.30
2022-08-07T23:02:58.563Z,55.60
2022-08-07T23:06:09.741Z,55.80
2022-08-07T23:08:54.586Z,55.80
2022-08-07T23:11:45.765Z,55.70
2022-08-07T23:14:37.090Z,55.80
2022-08-07T23:17:26.054Z,55.80
2022-08-07T23:20:51.485Z,55.80
2022-08-07T23:24:07.025Z,56.00
2022-08-07T23:26:26.078Z,56.10
2022-08-07T23:30:36.128Z,56.10
2022-08-07T23:34:22.102Z,56.40
2022-08-07T23:35:16.776Z,56.70
2022-08-07T23:38:11.454Z,56.80
2022-08-07T23:40:53.940Z,56.90
2022-08-07T23:43:43.533Z,57.10
2022-08-07T23:46:44.228Z,57.20
2022-08-07T23:50:16.119Z,57.40
2022-08-07T23:52:57.920Z,57.50
2022-08-07T23:55:52.638Z,57.70
2022-08-07T23:58:35.017Z,57.90
